Time;durP1;ratioP1;P1;durP2;ratioP2;P2;SDS_P1;SDS_P2;PMS_P1;PMS_P2;Temp;Humidity;BMP_temperature;BMP_pressure;BME280_temperature;BME280_humidity;BME280_pressure;Samples;Min_cycle;Max_cycle;Signal;HPM_P1;HPM_P2
2022/03/18 00:02:14;;;;;;;4.30;2.47;;;20.60;35.10;;;;;;5074904;28;20388;-83
2022/03/18 00:04:40;;;;;;;3.72;2.10;;;20.60;35.70;;;;;;5093136;28;20051;-83
2022/03/18 00:07:06;;;;;;;3.72;2.30;;;20.60;35.10;;;;;;5075227;28;20048;-83
2022/03/18 00:09:32;;;;;;;5.07;2.65;;;20.60;35.10;;;;;;5074791;28;20079;-83
2022/03/18 00:11:58;;;;;;;3.03;1.83;;;20.60;35.10;;;;;;5075259;28;20063;-83
2022/03/18 00:14:23;;;;;;;4.47;2.10;;;20.60;35.10;;;;;;5093265;28;20056;-83
2022/03/18 00:16:49;;;;;;;3.85;2.22;;;20.60;35.10;;;;;;5093053;28;20440;-83
2022/03/18 00:19:15;;;;;;;6.93;2.55;;;20.60;35.10;;;;;;5093381;28;20052;-83
2022/03/18 00:21:42;;;;;;;4.20;2.13;;;20.60;35.10;;;;;;5092936;28;20135;-83
2022/03/18 00:24:07;;;;;;;3.08;2.10;;;20.60;35.10;;;;;;5074742;28;20048;-83
2022/03/18 00:26:33;;;;;;;2.80;1.88;;;20.60;35.00;;;;;;5092785;28;20052;-83
2022/03/18 00:29:00;;;;;;;4.50;2.33;;;20.60;35.10;;;;;;5092788;28;20048;-83
2022/03/18 00:31:26;;;;;;;3.97;2.00;;;20.60;35.10;;;;;;5073031;28;20044;-83
2022/03/18 00:33:51;;;;;;;4.03;2.22;;;20.60;35.10;;;;;;5074816;28;20142;-83
2022/03/18 00:36:17;;;;;;;5.65;1.90;;;20.60;35.10;;;;;;5092631;28;20569;-83
2022/03/18 00:38:43;;;;;;;4.63;2.35;;;20.60;35.10;;;;;;5092707;28;20499;-83
2022/03/18 00:41:09;;;;;;;3.78;2.03;;;20.60;35.10;;;;;;5092052;28;20403;-83
2022/03/18 00:43:34;;;;;;;4.03;2.05;;;20.60;35.00;;;;;;5092686;28;20894;-83
2022/03/18 00:46:00;;;;;;;4.18;1.95;;;20.60;35.00;;;;;;5074798;28;20056;-83
2022/03/18 00:53:54;;;;;;;4.07;1.92;;;20.60;35.00;;;;;;5092502;28;20127;-83
2022/03/18 00:56:20;;;;;;;2.78;1.85;;;20.60;35.00;;;;;;5074258;28;20072;-83
2022/03/18 00:58:46;;;;;;;3.78;1.98;;;20.60;35.10;;;;;;5092475;28;20055;-83
2022/03/18 01:01:12;;;;;;;3.47;1.88;;;20.60;35.10;;;;;;5092303;28;20131;-83
2022/03/18 01:03:37;;;;;;;3.63;2.08;;;20.60;35.00;;;;;;5092376;28;20051;-83
2022/03/18 01:06:03;;;;;;;3.03;1.90;;;20.60;35.10;;;;;;5074154;28;20059;-83
2022/03/18 01:08:28;;;;;;;3.28;1.70;;;20.60;35.10;;;;;;5092561;28;20105;-83
2022/03/18 01:10:54;;;;;;;5.82;2.30;;;20.60;35.00;;;;;;5092223;28;20058;-83
2022/03/18 01:13:20;;;;;;;4.03;2.08;;;20.60;35.10;;;;;;5092282;28;20078;-83
2022/03/18 01:15:46;;;;;;;4.50;2.00;;;20.60;35.10;;;;;;5074021;28;20147;-83
2022/03/18 01:18:12;;;;;;;4.93;2.33;;;20.60;35.00;;;;;;5073940;28;20550;-83
2022/03/18 01:20:37;;;;;;;3.08;1.88;;;20.60;35.10;;;;;;5092185;28;20040;-83
2022/03/18 01:23:06;;;;;;;3.72;2.10;;;20.60;35.00;;;;;;5092241;28;20052;-83
2022/03/18 01:25:32;;;;;;;5.00;2.78;;;20.60;35.00;;;;;;5092046;28;20416;-83
2022/03/18 01:27:57;;;;;;;5.07;2.10;;;20.60;35.00;;;;;;5090740;28;20056;-83
2022/03/18 01:30:23;;;;;;;2.97;1.98;;;20.60;35.00;;;;;;5091976;28;20526;-83
2022/03/18 01:32:49;;;;;;;4.28;1.90;;;20.60;35.00;;;;;;5092630;28;20527;-83
2022/03/18 01:35:15;;;;;;;4.07;1.92;;;20.60;35.60;;;;;;5071792;28;20060;-83
2022/03/18 01:37:40;;;;;;;3.72;1.95;;;20.60;35.00;;;;;;5091980;28;20530;-83
2022/03/18 01:40:06;;;;;;;2.42;1.60;;;20.60;35.10;;;;;;5091633;28;20083;-83
2022/03/18 01:42:32;;;;;;;3.00;1.80;;;20.60;35.00;;;;;;5091895;28;20070;-83
2022/03/18 01:44:57;;;;;;;3.33;2.15;;;20.60;35.00;;;;;;5091720;28;20063;-83
2022/03/18 01:47:24;;;;;;;6.30;2.35;;;20.60;35.00;;;;;;5091998;28;20059;-83
2022/03/18 01:49:50;;;;;;;3.40;1.75;;;20.60;35.00;;;;;;5091660;28;20086;-83
2022/03/18 01:52:15;;;;;;;2.55;1.50;;;20.60;35.00;;;;;;5074120;28;20068;-83
2022/03/18 01:54:44;;;;;;;5.50;2.25;;;20.60;35.00;;;;;;5095141;28;20048;-83
2022/03/18 01:57:10;;;;;;;2.22;1.67;;;20.60;35.00;;;;;;5076959;28;20052;-83
2022/03/18 01:59:35;;;;;;;3.90;1.70;;;20.60;35.00;;;;;;5094810;28;20055;-83
2022/03/18 02:02:01;;;;;;;2.53;1.90;;;20.60;35.00;;;;;;5095067;28;20055;-83
2022/03/18 02:04:27;;;;;;;5.35;2.20;;;20.60;35.00;;;;;;5095048;28;20044;-83
2022/03/18 02:06:53;;;;;;;2.95;1.92;;;20.60;35.00;;;;;;5075019;28;20074;-83
2022/03/18 02:09:19;;;;;;;3.97;2.10;;;20.60;35.00;;;;;;5095072;28;20446;-83
2022/03/18 02:11:46;;;;;;;3.40;2.15;;;20.60;35.00;;;;;;5094844;28;20063;-83
2022/03/18 02:14:12;;;;;;;4.90;2.13;;;20.60;35.00;;;;;;5095013;28;20044;-83
2022/03/18 02:16:39;;;;;;;5.63;2.47;;;20.60;35.00;;;;;;5094896;28;20158;-83
2022/03/18 02:19:07;;;;;;;3.45;1.90;;;20.60;35.00;;;;;;5076518;28;20080;-83
2022/03/18 02:21:37;;;;;;;2.85;1.70;;;20.60;35.00;;;;;;5094781;28;20141;-83
2022/03/18 02:24:03;;;;;;;2.85;1.70;;;20.60;35.00;;;;;;5076877;28;20121;-83
2022/03/18 02:26:29;;;;;;;3.80;1.80;;;20.60;35.00;;;;;;5075328;28;20091;-83
2022/03/18 02:28:57;;;;;;;4.00;1.92;;;20.60;35.00;;;;;;5076480;28;20396;-83
2022/03/18 02:31:22;;;;;;;3.15;2.05;;;20.60;35.00;;;;;;5059723;28;20085;-83
2022/03/18 02:33:48;;;;;;;3.00;1.90;;;20.60;35.00;;;;;;5094615;28;20135;-83
2022/03/18 02:36:13;;;;;;;2.67;1.98;;;20.60;34.90;;;;;;5076719;28;20110;-83
2022/03/18 02:38:39;;;;;;;3.47;1.73;;;20.60;34.90;;;;;;5092461;28;20043;-83
2022/03/18 02:41:04;;;;;;;4.25;1.98;;;20.60;34.90;;;;;;5094498;28;20446;-83
2022/03/18 02:43:30;;;;;;;3.20;2.08;;;20.60;34.90;;;;;;5076228;28;20143;-83
2022/03/18 02:45:55;;;;;;;4.80;2.53;;;20.60;34.90;;;;;;5076781;28;20048;-83
2022/03/18 02:48:21;;;;;;;3.97;2.03;;;20.60;34.90;;;;;;5076341;28;20048;-83
2022/03/18 02:50:46;;;;;;;4.43;1.95;;;20.60;34.90;;;;;;5094368;28;20048;-83
2022/03/18 02:53:12;;;;;;;2.80;1.95;;;20.60;34.90;;;;;;5094341;28;20048;-83
2022/03/18 02:55:38;;;;;;;3.25;2.22;;;20.60;34.90;;;;;;5094536;28;20048;-83
2022/03/18 02:58:04;;;;;;;5.07;2.08;;;20.60;34.90;;;;;;5094078;28;20434;-83
2022/03/18 03:00:29;;;;;;;4.65;2.40;;;20.60;34.90;;;;;;5076627;28;20044;-83
2022/03/18 03:02:55;;;;;;;3.30;1.88;;;20.60;34.90;;;;;;5094387;28;20059;-83
2022/03/18 03:08:05;;;;;;;3.30;2.00;;;20.60;34.80;;;;;;5094146;28;20036;-83
2022/03/18 03:10:33;;;;;;;4.25;2.08;;;20.60;34.80;;;;;;5074457;28;20052;-83
2022/03/18 03:13:01;;;;;;;3.60;2.15;;;20.60;34.80;;;;;;5075826;28;20052;-83
2022/03/18 03:15:27;;;;;;;2.92;1.88;;;20.60;34.80;;;;;;5075661;28;20142;-83
2022/03/18 03:17:53;;;;;;;3.75;1.90;;;20.60;34.80;;;;;;5074883;28;20083;-83
2022/03/18 03:20:19;;;;;;;3.55;2.08;;;20.70;34.80;;;;;;5074143;28;20055;-83
2022/03/18 03:22:45;;;;;;;3.08;1.85;;;20.70;34.80;;;;;;5075551;28;20048;-83
2022/03/18 03:25:11;;;;;;;3.90;1.98;;;20.70;34.70;;;;;;5093626;28;20052;-83
2022/03/18 03:27:36;;;;;;;2.92;1.60;;;20.70;34.70;;;;;;5075442;28;20412;-83
2022/03/18 03:30:06;;;;;;;3.97;2.20;;;20.70;34.70;;;;;;5073755;28;20059;-83
2022/03/18 03:32:31;;;;;;;3.30;1.80;;;20.80;34.70;;;;;;5093668;28;20047;-83
2022/03/18 03:34:58;;;;;;;3.00;1.92;;;20.80;34.70;;;;;;5093838;28;20052;-83
2022/03/18 03:37:27;;;;;;;4.85;2.10;;;20.80;34.60;;;;;;5058655;28;20048;-83
2022/03/18 03:39:53;;;;;;;6.18;1.90;;;20.80;34.60;;;;;;5093231;28;20056;-83
2022/03/18 03:42:19;;;;;;;2.80;1.50;;;20.80;34.60;;;;;;5056957;28;20098;-83
2022/03/18 03:44:45;;;;;;;4.38;2.15;;;20.80;34.50;;;;;;5093356;28;20060;-83
2022/03/18 03:47:11;;;;;;;3.40;2.00;;;20.90;34.50;;;;;;5093516;28;20051;-83
2022/03/18 03:49:37;;;;;;;2.85;1.58;;;20.90;34.50;;;;;;5093164;28;20055;-83
2022/03/18 03:52:03;;;;;;;3.40;1.90;;;20.90;34.50;;;;;;5093373;28;20048;-83
2022/03/18 03:54:28;;;;;;;4.43;2.00;;;20.90;34.50;;;;;;5093259;28;20491;-83
2022/03/18 03:56:55;;;;;;;2.55;1.80;;;20.90;34.40;;;;;;5058347;28;20048;-83
2022/03/18 03:59:21;;;;;;;3.90;1.85;;;20.90;34.40;;;;;;5075296;28;20052;-83
2022/03/18 04:01:47;;;;;;;3.85;1.98;;;21.00;34.50;;;;;;5093117;28;20056;-83
2022/03/18 04:04:13;;;;;;;2.45;1.77;;;20.90;34.40;;;;;;5093241;28;20087;-83
2022/03/18 04:06:38;;;;;;;4.05;1.85;;;21.00;34.50;;;;;;5093036;28;20537;-83
2022/03/18 04:09:04;;;;;;;3.25;1.85;;;21.00;34.50;;;;;;5074791;28;20388;-84
2022/03/18 04:11:30;;;;;;;4.22;2.03;;;21.00;34.50;;;;;;5075004;28;20056;-84
2022/03/18 04:13:56;;;;;;;1.77;1.60;;;20.90;34.40;;;;;;5093030;28;20070;-83
2022/03/18 04:16:21;;;;;;;4.05;1.75;;;21.00;34.50;;;;;;5073883;28;20487;-84
2022/03/18 04:18:48;;;;;;;3.70;1.55;;;21.00;35.00;;;;;;5093189;28;20050;-83
2022/03/18 04:21:14;;;;;;;4.18;1.65;;;21.00;34.40;;;;;;5074685;28;20058;-83
2022/03/18 04:23:42;;;;;;;2.90;1.73;;;21.00;34.40;;;;;;5092951;28;20044;-83
2022/03/18 04:26:07;;;;;;;3.00;1.98;;;21.00;34.40;;;;;;5074871;28;20090;-83
2022/03/18 04:28:33;;;;;;;4.72;1.88;;;20.90;34.40;;;;;;5073621;28;20084;-83
2022/03/18 04:30:59;;;;;;;4.45;2.10;;;21.00;34.40;;;;;;5074671;28;20077;-83
2022/03/18 04:33:25;;;;;;;2.97;1.90;;;21.00;34.40;;;;;;5092638;28;20105;-83
2022/03/18 04:35:51;;;;;;;3.30;1.65;;;20.90;34.40;;;;;;5092728;28;20123;-83
2022/03/18 04:38:17;;;;;;;2.42;1.52;;;20.90;34.30;;;;;;5092535;28;20051;-83
2022/03/18 04:40:43;;;;;;;3.55;1.80;;;20.90;34.40;;;;;;5073158;28;20048;-83
2022/03/18 04:43:08;;;;;;;3.10;1.88;;;21.00;34.40;;;;;;5092620;28;20059;-83
2022/03/18 04:45:35;;;;;;;2.35;1.80;;;21.00;34.40;;;;;;5073817;28;20056;-83
2022/03/18 04:48:01;;;;;;;2.35;1.52;;;21.00;34.40;;;;;;5074334;28;20055;-83
2022/03/18 04:50:28;;;;;;;3.35;1.67;;;20.90;34.30;;;;;;5074317;28;20055;-83
2022/03/18 04:52:55;;;;;;;2.95;1.80;;;20.90;34.30;;;;;;5092481;28;20488;-83
2022/03/18 04:55:21;;;;;;;2.15;1.50;;;21.00;34.40;;;;;;5092346;28;20138;-83
2022/03/18 04:57:47;;;;;;;4.43;2.03;;;21.00;34.40;;;;;;5092635;28;20131;-83
2022/03/18 05:00:13;;;;;;;2.97;1.40;;;20.90;34.30;;;;;;5092537;28;20135;-83
2022/03/18 05:02:39;;;;;;;2.72;1.95;;;20.90;34.30;;;;;;5092277;28;20109;-83
2022/03/18 05:05:08;;;;;;;3.30;1.70;;;20.90;34.30;;;;;;5073038;28;20056;-83
2022/03/18 05:07:34;;;;;;;2.25;1.70;;;20.90;34.30;;;;;;5092323;28;20445;-83
2022/03/18 05:10:00;;;;;;;3.92;1.80;;;20.90;34.30;;;;;;5092222;28;20389;-83
2022/03/18 05:12:31;;;;;;;4.78;1.88;;;20.90;34.30;;;;;;5092593;28;20105;-83
2022/03/18 05:14:57;;;;;;;4.10;1.98;;;20.90;34.30;;;;;;5092247;28;20052;-83
2022/03/18 05:17:23;;;;;;;2.55;1.63;;;20.90;34.30;;;;;;5092177;28;20511;-83
2022/03/18 05:19:48;;;;;;;3.45;1.63;;;20.90;34.30;;;;;;5071899;28;20056;-83
2022/03/18 05:22:14;;;;;;;2.65;1.65;;;20.90;34.30;;;;;;5092068;28;20052;-83
2022/03/18 05:24:40;;;;;;;3.95;1.70;;;20.90;34.30;;;;;;5092319;28;20161;-83
2022/03/18 05:27:06;;;;;;;4.93;1.92;;;20.90;34.30;;;;;;5093581;28;20399;-83
2022/03/18 05:29:32;;;;;;;3.10;1.83;;;20.90;34.30;;;;;;5095322;28;20385;-83
2022/03/18 05:31:58;;;;;;;4.43;1.80;;;20.90;34.80;;;;;;5095825;28;20056;-82
2022/03/18 05:34:24;;;;;;;4.25;2.13;;;20.90;34.30;;;;;;5060736;28;20080;-82
2022/03/18 05:36:50;;;;;;;4.32;1.90;;;20.90;34.80;;;;;;5095536;28;20086;-83
2022/03/18 05:39:16;;;;;;;3.58;2.25;;;20.90;34.30;;;;;;5095360;28;20106;-82
2022/03/18 05:41:44;;;;;;;3.55;1.92;;;20.90;34.30;;;;;;5095529;28;20099;-82
2022/03/18 05:44:11;;;;;;;2.17;1.52;;;20.90;34.30;;;;;;5095456;28;20056;-83
2022/03/18 05:46:38;;;;;;;3.72;2.10;;;21.00;34.30;;;;;;5095249;28;20044;-82
2022/03/18 05:49:04;;;;;;;2.83;1.92;;;21.00;34.20;;;;;;5095255;28;20101;-82
2022/03/18 05:51:30;;;;;;;2.83;2.15;;;21.00;34.20;;;;;;5095322;28;20048;-82
2022/03/18 05:53:56;;;;;;;3.40;1.67;;;21.00;34.30;;;;;;5095575;28;20044;-82
2022/03/18 05:59:07;;;;;;;2.50;1.60;;;21.20;34.40;;;;;;5095155;28;20080;-82
2022/03/18 06:01:39;;;;;;;2.67;1.58;;;21.20;34.30;;;;;;5076906;28;20060;-82
2022/03/18 06:04:05;;;;;;;3.30;1.80;;;21.30;34.30;;;;;;5095383;28;20051;-83
2022/03/18 06:06:31;;;;;;;3.15;1.75;;;21.30;34.20;;;;;;5095060;28;20052;-83
2022/03/18 06:11:51;;;;;;;2.03;1.52;;;21.50;34.10;;;;;;5076820;28;20056;-82
2022/03/18 06:14:22;;;;;;;3.22;1.73;;;21.50;34.00;;;;;;5077007;28;20090;-82
2022/03/18 06:16:49;;;;;;;3.95;2.00;;;21.50;34.10;;;;;;5094783;28;20064;-82
2022/03/18 06:19:20;;;;;;;1.67;1.40;;;21.40;34.10;;;;;;5094781;28;20052;-82
2022/03/18 06:21:46;;;;;;;4.05;1.50;;;21.40;34.20;;;;;;5094733;28;20059;-82
2022/03/18 06:24:13;;;;;;;2.22;1.52;;;21.30;34.20;;;;;;5094662;28;20130;-82
2022/03/18 06:26:39;;;;;;;4.53;1.88;;;21.30;34.30;;;;;;5094621;28;20071;-82
2022/03/18 06:29:06;;;;;;;2.50;1.60;;;21.30;34.40;;;;;;5076191;28;20056;-82
2022/03/18 06:31:33;;;;;;;3.88;1.67;;;21.30;34.40;;;;;;5093239;28;20434;-84
2022/03/18 06:33:59;;;;;;;3.00;1.83;;;21.20;34.40;;;;;;5094893;28;20499;-84
2022/03/18 06:36:25;;;;;;;3.20;1.58;;;21.20;34.40;;;;;;5076534;28;20044;-87
2022/03/18 06:38:50;;;;;;;3.78;1.80;;;21.20;34.40;;;;;;5093743;28;20457;-86
2022/03/18 06:41:16;;;;;;;3.80;1.88;;;21.20;34.40;;;;;;5094436;28;20088;-86
2022/03/18 06:43:43;;;;;;;3.65;1.90;;;21.20;34.40;;;;;;5094413;28;20044;-86
2022/03/18 06:46:08;;;;;;;4.03;2.03;;;21.20;34.30;;;;;;5094378;28;20135;-86
2022/03/18 06:48:34;;;;;;;3.17;1.73;;;21.20;34.30;;;;;;5074910;28;20132;-86
2022/03/18 06:51:01;;;;;;;2.45;1.80;;;21.30;34.40;;;;;;5094586;28;20387;-86
2022/03/18 06:53:27;;;;;;;3.13;1.75;;;21.30;34.30;;;;;;5094182;28;20048;-86
2022/03/18 06:55:52;;;;;;;1.98;1.60;;;21.30;34.30;;;;;;5094476;28;20048;-86
2022/03/18 06:58:18;;;;;;;3.05;2.08;;;21.30;34.30;;;;;;5075827;28;20044;-86
2022/03/18 07:00:43;;;;;;;2.85;1.42;;;21.30;34.30;;;;;;5076170;28;20070;-86
2022/03/18 07:03:09;;;;;;;2.92;1.60;;;21.30;34.30;;;;;;5076016;28;20055;-86
2022/03/18 07:05:35;;;;;;;2.40;1.40;;;21.30;34.30;;;;;;5074657;28;20077;-86
2022/03/18 07:08:00;;;;;;;3.40;1.45;;;21.30;34.40;;;;;;5094224;28;20075;-86
2022/03/18 07:10:27;;;;;;;3.38;2.10;;;21.30;34.30;;;;;;5093921;28;20052;-86
2022/03/18 07:12:53;;;;;;;2.60;1.58;;;21.30;34.30;;;;;;5074995;28;20059;-86
2022/03/18 07:15:20;;;;;;;2.38;1.55;;;21.30;34.30;;;;;;5093826;28;20056;-86
2022/03/18 07:17:55;;;;;;;2.22;1.70;;;21.30;34.30;;;;;;5093724;28;20040;-85
2022/03/18 07:20:24;;;;;;;2.22;1.70;;;21.30;34.20;;;;;;5093884;28;20052;-86
2022/03/18 07:23:08;;;;;;;2.58;1.70;;;21.30;34.20;;;;;;5093742;28;20488;-86
2022/03/18 07:25:39;;;;;;;2.17;1.50;;;21.30;34.30;;;;;;5075652;28;20401;-86
2022/03/18 07:28:10;;;;;;;2.75;1.52;;;21.30;34.80;;;;;;5093697;28;20056;-86
2022/03/18 07:30:37;;;;;;;2.83;1.60;;;21.30;34.20;;;;;;5093695;28;20063;-85
2022/03/18 07:33:03;;;;;;;2.58;1.60;;;21.30;34.20;;;;;;5093753;28;20139;-86
2022/03/18 07:35:30;;;;;;;3.03;1.60;;;21.30;34.20;;;;;;5075674;28;20048;-86
2022/03/18 07:37:56;;;;;;;2.85;1.63;;;21.30;34.20;;;;;;5093517;28;20047;-86
2022/03/18 07:40:22;;;;;;;1.70;1.50;;;21.30;34.20;;;;;;5093784;28;20394;-86
2022/03/18 07:42:50;;;;;;;2.05;1.70;;;21.30;34.10;;;;;;5075327;28;20048;-86
2022/03/18 07:45:27;;;;;;;3.08;1.50;;;21.40;34.10;;;;;;5091978;28;20056;-86
2022/03/18 07:47:59;;;;;;;2.13;1.50;;;21.40;34.10;;;;;;5093152;28;20131;-86
2022/03/18 07:50:28;;;;;;;4.93;1.70;;;21.40;34.10;;;;;;5071922;28;20052;-85
2022/03/18 07:52:57;;;;;;;2.63;1.33;;;21.40;34.10;;;;;;5093333;28;20492;-85
2022/03/18 07:55:25;;;;;;;3.53;1.60;;;21.40;34.00;;;;;;5093343;28;20131;-85
2022/03/18 07:57:52;;;;;;;2.63;1.50;;;21.40;34.00;;;;;;5093462;28;20048;-85
2022/03/18 08:00:19;;;;;;;2.38;1.60;;;21.40;34.00;;;;;;5074849;28;20051;-85
2022/03/18 08:02:46;;;;;;;2.00;1.50;;;21.40;34.00;;;;;;5093134;28;20055;-86
2022/03/18 08:05:12;;;;;;;3.67;1.50;;;21.40;34.10;;;;;;5073520;28;20056;-85
2022/03/18 08:07:39;;;;;;;1.90;1.42;;;21.40;34.10;;;;;;5092733;28;20048;-86
2022/03/18 08:10:06;;;;;;;2.40;1.42;;;21.40;34.10;;;;;;5092625;28;20419;-86
2022/03/18 08:12:32;;;;;;;2.17;1.65;;;21.40;34.10;;;;;;5092897;28;20051;-86
2022/03/18 08:14:59;;;;;;;1.90;1.55;;;21.40;34.10;;;;;;5092419;28;20408;-86
2022/03/18 08:17:26;;;;;;;2.00;1.30;;;21.40;34.10;;;;;;5092837;28;20083;-86
2022/03/18 08:19:51;;;;;;;2.75;1.63;;;21.40;34.00;;;;;;5074402;28;20052;-86
2022/03/18 08:22:20;;;;;;;1.65;1.20;;;21.40;34.00;;;;;;5092819;28;20055;-86
2022/03/18 08:24:46;;;;;;;2.13;1.40;;;21.50;34.10;;;;;;5074659;28;20055;-86
2022/03/18 08:27:11;;;;;;;2.45;1.42;;;21.50;33.90;;;;;;5092942;28;20054;-86
2022/03/18 08:29:38;;;;;;;2.20;1.30;;;21.60;33.90;;;;;;5093041;28;20126;-86
2022/03/18 08:32:05;;;;;;;3.67;1.50;;;21.60;33.90;;;;;;5093033;28;20054;-86
2022/03/18 08:34:30;;;;;;;2.33;1.40;;;21.50;33.80;;;;;;5092802;28;20051;-85
2022/03/18 08:36:56;;;;;;;4.65;1.63;;;21.50;33.90;;;;;;5093257;28;20455;-85
2022/03/18 08:39:21;;;;;;;2.47;1.45;;;21.50;34.50;;;;;;5074438;28;20118;-86
2022/03/18 08:41:47;;;;;;;3.25;1.25;;;21.50;33.80;;;;;;5092552;28;20127;-86
2022/03/18 08:44:14;;;;;;;2.08;1.23;;;21.50;33.80;;;;;;5057988;28;20140;-86
2022/03/18 08:46:39;;;;;;;2.40;1.40;;;21.60;33.80;;;;;;5092745;28;20052;-86
2022/03/18 08:49:05;;;;;;;2.72;1.60;;;21.60;33.70;;;;;;5092519;28;20097;-86
2022/03/18 08:51:30;;;;;;;1.52;1.15;;;21.60;33.70;;;;;;5092450;28;20404;-86
2022/03/18 08:53:56;;;;;;;1.40;1.30;;;21.60;33.70;;;;;;5074139;28;20492;-85
2022/03/18 08:56:22;;;;;;;2.33;1.50;;;21.60;33.70;;;;;;5092332;28;20492;-86
2022/03/18 08:58:49;;;;;;;2.30;1.38;;;21.60;33.80;;;;;;5092387;28;20044;-86
2022/03/18 09:01:14;;;;;;;1.95;1.30;;;21.60;33.80;;;;;;5074352;28;20052;-86
2022/03/18 09:03:40;;;;;;;2.13;1.38;;;21.60;33.80;;;;;;5095903;28;20048;-85
2022/03/18 09:06:07;;;;;;;2.13;1.40;;;21.60;33.80;;;;;;5096216;28;20143;-86
2022/03/18 09:08:32;;;;;;;2.50;1.45;;;21.60;33.80;;;;;;5095620;28;20048;-85
2022/03/18 09:10:58;;;;;;;2.30;1.52;;;21.60;33.80;;;;;;5096108;28;20157;-86
2022/03/18 09:13:23;;;;;;;2.55;1.50;;;21.60;33.90;;;;;;5095753;28;20487;-85
2022/03/18 09:15:50;;;;;;;2.95;1.40;;;21.50;33.80;;;;;;5095781;28;20048;-86
2022/03/18 09:18:18;;;;;;;2.13;1.35;;;21.50;33.80;;;;;;5077227;28;20044;-85
2022/03/18 09:20:43;;;;;;;1.92;1.50;;;21.50;33.80;;;;;;5095965;28;20079;-85
2022/03/18 09:23:09;;;;;;;2.03;1.27;;;21.50;33.80;;;;;;5095616;28;20116;-86
2022/03/18 09:25:36;;;;;;;1.95;1.40;;;21.50;33.80;;;;;;5095630;28;20381;-86
2022/03/18 09:28:03;;;;;;;2.08;1.30;;;21.50;33.80;;;;;;5077149;28;20086;-86
2022/03/18 09:30:29;;;;;;;1.65;1.15;;;21.60;33.90;;;;;;5095828;28;20445;-86
2022/03/18 09:32:55;;;;;;;2.60;1.50;;;21.60;33.80;;;;;;5095567;28;20052;-86
2022/03/18 09:35:22;;;;;;;1.95;1.30;;;21.60;33.80;;;;;;5095461;28;20101;-85
2022/03/18 09:37:47;;;;;;;2.53;1.50;;;21.60;33.80;;;;;;5076965;28;20048;-86
2022/03/18 09:40:13;;;;;;;1.10;1.00;;;21.60;33.90;;;;;;5095159;28;20048;-86
2022/03/18 09:42:58;;;;;;;3.33;1.65;;;21.60;33.80;;;;;;5095447;28;20086;-85
2022/03/18 09:45:30;;;;;;;2.40;1.50;;;21.60;33.80;;;;;;5095158;28;20113;-85
2022/03/18 09:48:09;;;;;;;2.70;1.48;;;21.60;33.80;;;;;;5095164;28;20082;-86
2022/03/18 09:50:36;;;;;;;2.38;1.52;;;21.60;33.80;;;;;;5095156;28;20055;-86
2022/03/18 09:53:03;;;;;;;2.63;1.73;;;21.50;33.80;;;;;;5060218;28;20105;-85
2022/03/18 09:55:30;;;;;;;1.55;1.17;;;21.50;33.80;;;;;;5076919;28;20048;-85
2022/03/18 09:57:57;;;;;;;2.30;1.30;;;21.50;33.80;;;;;;5094934;28;20135;-85
2022/03/18 10:00:23;;;;;;;2.38;1.60;;;21.50;33.80;;;;;;5095083;28;20081;-86
2022/03/18 10:03:10;;;;;;;2.03;1.27;;;21.50;33.80;;;;;;5095012;28;20098;-85
2022/03/18 10:05:58;;;;;;;1.50;1.40;;;21.50;33.80;;;;;;5094891;28;20063;-86
2022/03/18 10:08:25;;;;;;;2.85;1.40;;;21.50;33.80;;;;;;5094795;28;20055;-85
2022/03/18 10:10:52;;;;;;;2.30;1.30;;;21.50;33.80;;;;;;5076513;28;20079;-86
2022/03/18 10:13:18;;;;;;;1.77;1.30;;;21.50;33.90;;;;;;5074589;28;20052;-85
2022/03/18 10:15:46;;;;;;;2.13;1.30;;;21.50;33.80;;;;;;5094820;28;20055;-86
2022/03/18 10:18:13;;;;;;;1.90;1.15;;;21.50;33.80;;;;;;5095798;28;20056;-85
2022/03/18 10:20:42;;;;;;;2.65;1.52;;;21.50;33.80;;;;;;5094438;28;20143;-85
2022/03/18 10:23:25;;;;;;;2.28;1.58;;;21.50;33.80;;;;;;5094720;28;20067;-85
2022/03/18 10:25:57;;;;;;;1.75;1.27;;;21.50;33.90;;;;;;5094431;28;20055;-85
2022/03/18 10:28:32;;;;;;;1.55;1.30;;;21.50;33.80;;;;;;5075798;28;20387;-85
2022/03/18 10:31:20;;;;;;;2.33;1.50;;;21.50;33.80;;;;;;5076457;28;20048;-85
2022/03/18 10:39:25;;;;;;;1.85;1.30;;;21.50;33.80;;;;;;5074922;28;20044;-85
2022/03/18 10:41:52;;;;;;;2.30;1.30;;;21.50;33.80;;;;;;5094570;28;20047;-85
2022/03/18 10:44:17;;;;;;;1.73;1.48;;;21.50;34.40;;;;;;5094345;28;20044;-85
2022/03/18 10:46:43;;;;;;;2.08;1.38;;;21.50;33.80;;;;;;5094177;28;20052;-86
2022/03/18 10:49:10;;;;;;;1.35;1.15;;;21.50;33.80;;;;;;5094241;28;20048;-86
2022/03/18 10:51:37;;;;;;;1.85;1.30;;;21.50;33.80;;;;;;5094335;28;20148;-85
2022/03/18 10:54:04;;;;;;;2.20;1.33;;;21.50;33.80;;;;;;5059253;28;20056;-85
2022/03/18 10:56:49;;;;;;;2.72;1.50;;;21.50;33.80;;;;;;5094085;28;20053;-85
2022/03/18 10:59:17;;;;;;;2.17;1.40;;;21.50;33.80;;;;;;5094021;28;20055;-85
2022/03/18 11:01:47;;;;;;;1.90;1.27;;;21.50;33.80;;;;;;5094013;28;20048;-85
2022/03/18 11:04:16;;;;;;;2.63;1.30;;;21.50;34.30;;;;;;5094142;28;20492;-85
2022/03/18 11:06:43;;;;;;;2.25;1.40;;;21.50;33.80;;;;;;5093765;28;20369;-85
2022/03/18 11:09:14;;;;;;;2.38;1.60;;;21.50;33.80;;;;;;5093947;28;20043;-85
2022/03/18 11:11:41;;;;;;;2.25;1.58;;;21.50;33.80;;;;;;5093901;28;20086;-85
2022/03/18 11:14:10;;;;;;;1.77;1.33;;;21.50;33.80;;;;;;5093983;28;20044;-85
2022/03/18 11:16:40;;;;;;;1.52;1.33;;;21.50;33.80;;;;;;5093644;28;20090;-85
2022/03/18 11:19:09;;;;;;;2.55;1.30;;;21.50;33.80;;;;;;5093988;28;20052;-85
2022/03/18 11:21:36;;;;;;;2.78;1.40;;;21.50;33.80;;;;;;5075469;28;20583;-85
2022/03/18 11:24:13;;;;;;;1.67;1.40;;;21.50;33.80;;;;;;5093686;28;20048;-85
2022/03/18 11:26:47;;;;;;;2.60;1.45;;;21.50;33.80;;;;;;5093719;28;20055;-85
2022/03/18 11:29:19;;;;;;;2.03;1.42;;;21.50;33.80;;;;;;5093818;28;20215;-85
2022/03/18 11:32:17;;;;;;;2.20;1.48;;;21.50;33.80;;;;;;5093663;28;20048;-85
2022/03/18 11:34:52;;;;;;;2.97;1.45;;;21.50;33.80;;;;;;5086097;28;20056;-85
2022/03/18 11:37:19;;;;;;;2.75;1.58;;;21.50;33.80;;;;;;5093725;28;20036;-85
2022/03/18 11:39:46;;;;;;;2.35;1.20;;;21.50;33.80;;;;;;5075184;28;20074;-84
2022/03/18 11:42:18;;;;;;;2.13;1.70;;;21.50;33.80;;;;;;5093536;28;20048;-84
2022/03/18 11:44:49;;;;;;;2.58;1.45;;;21.50;33.80;;;;;;5093493;28;20118;-85
2022/03/18 11:47:20;;;;;;;;;;;21.50;33.80;;;;;;5093684;28;20517;-85
2022/03/18 11:49:47;;;;;;;2.95;1.45;;;21.50;33.80;;;;;;5093462;28;19953;-84
2022/03/18 11:52:13;;;;;;;2.47;1.40;;;21.50;33.80;;;;;;5075493;28;20063;-85
2022/03/18 11:54:54;;;;;;;2.78;1.40;;;21.50;33.80;;;;;;5093376;28;20085;-85
2022/03/18 11:57:34;;;;;;;3.63;1.80;;;21.60;33.90;;;;;;5074976;28;20047;-85
2022/03/18 12:00:05;;;;;;;2.28;1.67;;;21.50;33.80;;;;;;5092951;28;20137;-85
2022/03/18 12:02:32;;;;;;;3.70;1.83;;;21.50;33.80;;;;;;5093532;28;20047;-84
2022/03/18 12:04:59;;;;;;;3.92;1.50;;;21.50;33.80;;;;;;5092920;28;20059;-85
2022/03/18 12:07:30;;;;;;;2.80;1.30;;;21.50;33.80;;;;;;5092917;28;20056;-85
2022/03/18 12:10:05;;;;;;;2.17;1.65;;;21.60;33.90;;;;;;5075317;28;20384;-84
2022/03/18 12:12:39;;;;;;;2.80;1.60;;;21.60;33.90;;;;;;5074932;28;20086;-85
2022/03/18 12:15:22;;;;;;;3.38;1.42;;;21.60;33.80;;;;;;5092798;28;20140;-84
2022/03/18 12:17:52;;;;;;;3.85;1.77;;;21.50;33.80;;;;;;5089852;28;20377;-85
2022/03/18 12:20:30;;;;;;;3.40;1.70;;;21.60;33.80;;;;;;5057893;28;20051;-85
2022/03/18 12:22:58;;;;;;;1.38;1.15;;;21.60;33.80;;;;;;5057899;28;20043;-85
2022/03/18 12:25:24;;;;;;;2.10;1.60;;;21.60;33.80;;;;;;5091551;28;20059;-85
2022/03/18 12:27:52;;;;;;;3.80;1.63;;;21.60;33.80;;;;;;5092699;28;20480;-85
2022/03/18 12:30:21;;;;;;;2.40;1.40;;;21.60;33.80;;;;;;5092718;28;20054;-85
2022/03/18 12:32:54;;;;;;;3.47;1.30;;;21.60;33.80;;;;;;5074440;28;20047;-84
2022/03/18 12:35:26;;;;;;;1.83;1.33;;;21.60;33.80;;;;;;5093066;28;20052;-84
2022/03/18 12:38:21;;;;;;;1.45;1.33;;;21.60;33.80;;;;;;5091999;28;20472;-85
2022/03/18 12:40:58;;;;;;;3.72;1.50;;;21.60;33.80;;;;;;5071030;28;20490;-85
2022/03/18 12:43:31;;;;;;;1.92;1.25;;;21.60;33.80;;;;;;5092647;28;20056;-85
2022/03/18 12:45:57;;;;;;;2.25;1.50;;;21.60;33.80;;;;;;5092868;28;20060;-84
2022/03/18 12:48:23;;;;;;;1.58;1.48;;;21.60;33.80;;;;;;5091967;28;20135;-85
2022/03/18 12:50:50;;;;;;;2.65;1.38;;;21.60;33.70;;;;;;5092610;28;20126;-84
2022/03/18 12:53:22;;;;;;;2.53;1.55;;;21.60;33.70;;;;;;5092776;28;20064;-84
2022/03/18 12:55:50;;;;;;;3.60;1.60;;;21.60;33.70;;;;;;5092472;28;20484;-84
2022/03/18 12:58:40;;;;;;;1.77;1.27;;;21.60;33.70;;;;;;5091602;28;20479;-84
2022/03/18 13:01:08;;;;;;;2.75;1.50;;;21.60;33.70;;;;;;5092388;28;20083;-84
2022/03/18 13:03:34;;;;;;;2.97;1.65;;;21.60;33.70;;;;;;5092186;28;20056;-84
2022/03/18 13:06:09;;;;;;;2.17;1.50;;;21.70;33.70;;;;;;5074137;28;20056;-84
2022/03/18 13:08:36;;;;;;;3.35;1.85;;;21.60;33.60;;;;;;5092044;28;20054;-85
2022/03/18 13:11:05;;;;;;;3.20;1.27;;;21.70;33.70;;;;;;5092391;28;20059;-84